sensor_id;sensor_type;location;lat;lon;timestamp;P1;durP1;ratioP1;P2;durP2;ratioP2
4313;SDS011;2170;48.794;9.182;2023-12-22T00:01:56;2.10;;;1.90;;
4313;SDS011;2170;48.794;9.182;2023-12-22T00:05:01;2.00;;;1.50;;
4313;SDS011;2170;48.794;9.182;2023-12-22T00:07:42;1.77;;;1.50;;
4313;SDS011;2170;48.794;9.182;2023-12-22T00:11:04;6.77;;;1.53;;
4313;SDS011;2170;48.794;9.182;2023-12-22T00:13:45;2.30;;;1.47;;
4313;SDS011;2170;48.794;9.182;2023-12-22T00:16:18;3.43;;;3.10;;
4313;SDS011;2170;48.794;9.182;2023-12-22T00:18:58;5.13;;;2.03;;
4313;SDS011;2170;48.794;9.182;2023-12-22T00:21:29;5.10;;;2.30;;
4313;SDS011;2170;48.794;9.182;2023-12-22T00:24:17;8.17;;;2.53;;
4313;SDS011;2170;48.794;9.182;2023-12-22T00:27:20;2.97;;;2.40;;
4313;SDS011;2170;48.794;9.182;2023-12-22T00:30:13;5.43;;;2.20;;
4313;SDS011;2170;48.794;9.182;2023-12-22T00:32:57;6.83;;;2.57;;
4313;SDS011;2170;48.794;9.182;2023-12-22T00:35:45;6.73;;;3.33;;
4313;SDS011;2170;48.794;9.182;2023-12-22T00:42:08;3.90;;;1.60;;
4313;SDS011;2170;48.794;9.182;2023-12-22T00:45:17;2.70;;;2.10;;
4313;SDS011;2170;48.794;9.182;2023-12-22T00:47:53;2.57;;;1.80;;
4313;SDS011;2170;48.794;9.182;2023-12-22T00:50:39;2.90;;;1.93;;
4313;SDS011;2170;48.794;9.182;2023-12-22T00:57:02;1.77;;;1.63;;
4313;SDS011;2170;48.794;9.182;2023-12-22T01:00:00;3.33;;;1.67;;
4313;SDS011;2170;48.794;9.182;2023-12-22T01:02:42;5.23;;;1.70;;
4313;SDS011;2170;48.794;9.182;2023-12-22T01:05:22;2.63;;;1.60;;
4313;SDS011;2170;48.794;9.182;2023-12-22T01:08:05;2.03;;;1.70;;
4313;SDS011;2170;48.794;9.182;2023-12-22T01:10:49;2.03;;;1.83;;
4313;SDS011;2170;48.794;9.182;2023-12-22T01:13:27;4.53;;;1.80;;
4313;SDS011;2170;48.794;9.182;2023-12-22T01:16:15;3.40;;;1.83;;
4313;SDS011;2170;48.794;9.182;2023-12-22T01:18:52;4.00;;;1.90;;
4313;SDS011;2170;48.794;9.182;2023-12-22T01:21:28;2.40;;;2.00;;
4313;SDS011;2170;48.794;9.182;2023-12-22T01:24:04;3.30;;;2.00;;
4313;SDS011;2170;48.794;9.182;2023-12-22T01:26:49;4.17;;;2.10;;
4313;SDS011;2170;48.794;9.182;2023-12-22T01:29:30;1.73;;;1.60;;
4313;SDS011;2170;48.794;9.182;2023-12-22T01:32:04;2.20;;;1.50;;
4313;SDS011;2170;48.794;9.182;2023-12-22T01:34:36;4.40;;;2.27;;
4313;SDS011;2170;48.794;9.182;2023-12-22T01:37:18;5.53;;;2.13;;
4313;SDS011;2170;48.794;9.182;2023-12-22T01:40:07;12.13;;;1.83;;
4313;SDS011;2170;48.794;9.182;2023-12-22T01:42:53;2.47;;;1.60;;
4313;SDS011;2170;48.794;9.182;2023-12-22T01:45:27;2.53;;;1.80;;
4313;SDS011;2170;48.794;9.182;2023-12-22T01:48:12;2.00;;;1.73;;
4313;SDS011;2170;48.794;9.182;2023-12-22T01:50:52;1.80;;;1.10;;
4313;SDS011;2170;48.794;9.182;2023-12-22T01:53:27;4.90;;;1.37;;
4313;SDS011;2170;48.794;9.182;2023-12-22T01:56:02;1.40;;;1.30;;
4313;SDS011;2170;48.794;9.182;2023-12-22T01:59:10;2.30;;;1.27;;
4313;SDS011;2170;48.794;9.182;2023-12-22T02:01:52;3.77;;;1.10;;
4313;SDS011;2170;48.794;9.182;2023-12-22T02:04:31;1.50;;;1.40;;
4313;SDS011;2170;48.794;9.182;2023-12-22T02:07:22;1.87;;;1.10;;
4313;SDS011;2170;48.794;9.182;2023-12-22T02:13:04;1.97;;;1.33;;
4313;SDS011;2170;48.794;9.182;2023-12-22T02:15:45;5.40;;;1.30;;
4313;SDS011;2170;48.794;9.182;2023-12-22T02:18:19;1.47;;;1.37;;
4313;SDS011;2170;48.794;9.182;2023-12-22T02:21:19;1.80;;;1.30;;
4313;SDS011;2170;48.794;9.182;2023-12-22T02:24:10;1.20;;;1.13;;
4313;SDS011;2170;48.794;9.182;2023-12-22T02:26:52;1.20;;;1.20;;
4313;SDS011;2170;48.794;9.182;2023-12-22T02:29:31;1.10;;;0.87;;
4313;SDS011;2170;48.794;9.182;2023-12-22T02:32:20;1.23;;;1.10;;
4313;SDS011;2170;48.794;9.182;2023-12-22T02:35:26;1.30;;;1.20;;
4313;SDS011;2170;48.794;9.182;2023-12-22T02:38:10;1.67;;;1.33;;
4313;SDS011;2170;48.794;9.182;2023-12-22T02:41:05;3.23;;;1.70;;
4313;SDS011;2170;48.794;9.182;2023-12-22T02:43:46;2.87;;;1.40;;
4313;SDS011;2170;48.794;9.182;2023-12-22T02:46:38;2.90;;;1.63;;
4313;SDS011;2170;48.794;9.182;2023-12-22T02:49:19;3.40;;;1.40;;
4313;SDS011;2170;48.794;9.182;2023-12-22T02:52:01;2.33;;;1.53;;
4313;SDS011;2170;48.794;9.182;2023-12-22T02:54:45;3.33;;;1.47;;
4313;SDS011;2170;48.794;9.182;2023-12-22T02:57:28;3.23;;;1.10;;
4313;SDS011;2170;48.794;9.182;2023-12-22T03:00:21;1.63;;;1.50;;
4313;SDS011;2170;48.794;9.182;2023-12-22T03:03:01;4.53;;;1.20;;
4313;SDS011;2170;48.794;9.182;2023-12-22T03:05:58;1.80;;;1.10;;
4313;SDS011;2170;48.794;9.182;2023-12-22T03:08:36;3.93;;;2.10;;
4313;SDS011;2170;48.794;9.182;2023-12-22T03:17:06;3.47;;;1.50;;
4313;SDS011;2170;48.794;9.182;2023-12-22T03:20:01;2.00;;;1.53;;
4313;SDS011;2170;48.794;9.182;2023-12-22T03:22:44;2.03;;;1.43;;
4313;SDS011;2170;48.794;9.182;2023-12-22T03:28:28;2.80;;;1.63;;
4313;SDS011;2170;48.794;9.182;2023-12-22T03:31:07;4.60;;;2.00;;
4313;SDS011;2170;48.794;9.182;2023-12-22T03:33:49;2.03;;;1.30;;
4313;SDS011;2170;48.794;9.182;2023-12-22T03:36:36;1.83;;;1.33;;
4313;SDS011;2170;48.794;9.182;2023-12-22T03:39:18;3.50;;;1.30;;
4313;SDS011;2170;48.794;9.182;2023-12-22T03:42:00;2.50;;;1.30;;
4313;SDS011;2170;48.794;9.182;2023-12-22T03:44:46;1.80;;;1.00;;
4313;SDS011;2170;48.794;9.182;2023-12-22T03:47:32;5.10;;;1.30;;
4313;SDS011;2170;48.794;9.182;2023-12-22T03:50:24;5.90;;;2.10;;
4313;SDS011;2170;48.794;9.182;2023-12-22T03:53:27;2.93;;;1.90;;
4313;SDS011;2170;48.794;9.182;2023-12-22T03:56:19;3.13;;;1.93;;
4313;SDS011;2170;48.794;9.182;2023-12-22T03:58:49;1.70;;;1.03;;
4313;SDS011;2170;48.794;9.182;2023-12-22T04:01:29;2.13;;;1.50;;
4313;SDS011;2170;48.794;9.182;2023-12-22T04:04:17;3.70;;;1.60;;
4313;SDS011;2170;48.794;9.182;2023-12-22T04:06:57;4.00;;;1.50;;
4313;SDS011;2170;48.794;9.182;2023-12-22T04:09:50;1.77;;;1.23;;
4313;SDS011;2170;48.794;9.182;2023-12-22T04:12:24;7.70;;;1.80;;
4313;SDS011;2170;48.794;9.182;2023-12-22T04:15:05;4.63;;;2.03;;
4313;SDS011;2170;48.794;9.182;2023-12-22T04:17:45;4.27;;;2.27;;
4313;SDS011;2170;48.794;9.182;2023-12-22T04:20:39;4.23;;;1.83;;
4313;SDS011;2170;48.794;9.182;2023-12-22T04:23:19;2.53;;;2.10;;
4313;SDS011;2170;48.794;9.182;2023-12-22T04:25:50;3.13;;;1.73;;
4313;SDS011;2170;48.794;9.182;2023-12-22T04:28:28;5.10;;;1.70;;
4313;SDS011;2170;48.794;9.182;2023-12-22T04:31:05;5.97;;;1.87;;
4313;SDS011;2170;48.794;9.182;2023-12-22T04:33:35;5.17;;;1.80;;
4313;SDS011;2170;48.794;9.182;2023-12-22T04:36:11;4.23;;;1.40;;
4313;SDS011;2170;48.794;9.182;2023-12-22T04:38:50;3.23;;;1.87;;
4313;SDS011;2170;48.794;9.182;2023-12-22T04:41:21;4.53;;;1.77;;
4313;SDS011;2170;48.794;9.182;2023-12-22T04:43:56;4.40;;;1.50;;
4313;SDS011;2170;48.794;9.182;2023-12-22T04:46:39;3.50;;;1.33;;
4313;SDS011;2170;48.794;9.182;2023-12-22T04:49:17;4.83;;;1.60;;
4313;SDS011;2170;48.794;9.182;2023-12-22T04:52:13;1.47;;;1.37;;
4313;SDS011;2170;48.794;9.182;2023-12-22T04:58:30;3.03;;;1.50;;
4313;SDS011;2170;48.794;9.182;2023-12-22T05:01:29;6.83;;;1.50;;
4313;SDS011;2170;48.794;9.182;2023-12-22T05:04:06;1.60;;;1.30;;
4313;SDS011;2170;48.794;9.182;2023-12-22T05:06:52;1.93;;;1.27;;
4313;SDS011;2170;48.794;9.182;2023-12-22T05:10:00;5.13;;;2.27;;
4313;SDS011;2170;48.794;9.182;2023-12-22T05:13:17;3.00;;;1.90;;
4313;SDS011;2170;48.794;9.182;2023-12-22T05:16:35;3.90;;;1.97;;
4313;SDS011;2170;48.794;9.182;2023-12-22T05:22:33;4.30;;;1.93;;
4313;SDS011;2170;48.794;9.182;2023-12-22T05:25:24;6.73;;;2.50;;
4313;SDS011;2170;48.794;9.182;2023-12-22T05:28:29;4.93;;;2.20;;
4313;SDS011;2170;48.794;9.182;2023-12-22T05:31:20;7.90;;;2.07;;
4313;SDS011;2170;48.794;9.182;2023-12-22T05:34:23;5.33;;;2.10;;
4313;SDS011;2170;48.794;9.182;2023-12-22T05:37:12;4.40;;;1.93;;
4313;SDS011;2170;48.794;9.182;2023-12-22T05:40:03;5.70;;;2.27;;
4313;SDS011;2170;48.794;9.182;2023-12-22T05:42:59;8.80;;;2.70;;
4313;SDS011;2170;48.794;9.182;2023-12-22T05:46:03;4.37;;;2.13;;
4313;SDS011;2170;48.794;9.182;2023-12-22T05:52:02;5.10;;;2.03;;
4313;SDS011;2170;48.794;9.182;2023-12-22T05:54:55;7.20;;;1.70;;
4313;SDS011;2170;48.794;9.182;2023-12-22T05:57:43;5.40;;;1.93;;
4313;SDS011;2170;48.794;9.182;2023-12-22T06:00:28;6.80;;;2.03;;
4313;SDS011;2170;48.794;9.182;2023-12-22T06:03:10;6.00;;;2.33;;
4313;SDS011;2170;48.794;9.182;2023-12-22T06:06:09;6.40;;;2.17;;
4313;SDS011;2170;48.794;9.182;2023-12-22T06:08:51;3.70;;;1.70;;
4313;SDS011;2170;48.794;9.182;2023-12-22T06:14:37;4.90;;;1.77;;
4313;SDS011;2170;48.794;9.182;2023-12-22T06:17:40;6.10;;;2.13;;
4313;SDS011;2170;48.794;9.182;2023-12-22T06:20:28;7.50;;;2.60;;
4313;SDS011;2170;48.794;9.182;2023-12-22T06:23:22;7.03;;;2.33;;
4313;SDS011;2170;48.794;9.182;2023-12-22T06:26:07;6.00;;;2.07;;
4313;SDS011;2170;48.794;9.182;2023-12-22T06:28:58;6.80;;;2.80;;
4313;SDS011;2170;48.794;9.182;2023-12-22T06:31:57;5.20;;;2.30;;
4313;SDS011;2170;48.794;9.182;2023-12-22T06:34:53;4.70;;;1.93;;
4313;SDS011;2170;48.794;9.182;2023-12-22T06:38:05;10.00;;;3.30;;
4313;SDS011;2170;48.794;9.182;2023-12-22T06:41:11;3.83;;;2.17;;
4313;SDS011;2170;48.794;9.182;2023-12-22T06:44:14;8.43;;;2.20;;
4313;SDS011;2170;48.794;9.182;2023-12-22T06:47:01;3.20;;;2.10;;
4313;SDS011;2170;48.794;9.182;2023-12-22T06:53:13;5.57;;;2.27;;
4313;SDS011;2170;48.794;9.182;2023-12-22T06:56:02;4.23;;;1.90;;
4313;SDS011;2170;48.794;9.182;2023-12-22T06:59:01;6.37;;;2.70;;
4313;SDS011;2170;48.794;9.182;2023-12-22T07:01:48;7.03;;;2.40;;
4313;SDS011;2170;48.794;9.182;2023-12-22T07:08:19;3.67;;;2.03;;
4313;SDS011;2170;48.794;9.182;2023-12-22T07:11:54;4.77;;;2.07;;
4313;SDS011;2170;48.794;9.182;2023-12-22T07:14:46;3.60;;;2.23;;
4313;SDS011;2170;48.794;9.182;2023-12-22T07:17:44;7.13;;;2.23;;
4313;SDS011;2170;48.794;9.182;2023-12-22T07:20:36;6.47;;;2.20;;
4313;SDS011;2170;48.794;9.182;2023-12-22T07:23:09;2.83;;;1.73;;
4313;SDS011;2170;48.794;9.182;2023-12-22T07:25:51;5.67;;;1.90;;
4313;SDS011;2170;48.794;9.182;2023-12-22T07:28:56;8.10;;;2.87;;
4313;SDS011;2170;48.794;9.182;2023-12-22T07:34:29;2.73;;;1.90;;
4313;SDS011;2170;48.794;9.182;2023-12-22T07:37:32;4.73;;;2.17;;
4313;SDS011;2170;48.794;9.182;2023-12-22T07:40:38;2.83;;;2.00;;
4313;SDS011;2170;48.794;9.182;2023-12-22T07:43:23;3.57;;;2.10;;
4313;SDS011;2170;48.794;9.182;2023-12-22T07:46:18;5.60;;;1.83;;
4313;SDS011;2170;48.794;9.182;2023-12-22T07:49:03;6.40;;;2.10;;
4313;SDS011;2170;48.794;9.182;2023-12-22T07:51:46;3.73;;;1.60;;
4313;SDS011;2170;48.794;9.182;2023-12-22T07:54:39;7.30;;;1.70;;
4313;SDS011;2170;48.794;9.182;2023-12-22T07:57:37;2.63;;;2.20;;
4313;SDS011;2170;48.794;9.182;2023-12-22T08:00:19;5.10;;;2.43;;
4313;SDS011;2170;48.794;9.182;2023-12-22T08:02:53;4.23;;;1.97;;
4313;SDS011;2170;48.794;9.182;2023-12-22T08:05:39;4.43;;;1.70;;
4313;SDS011;2170;48.794;9.182;2023-12-22T08:08:28;5.97;;;2.13;;
4313;SDS011;2170;48.794;9.182;2023-12-22T08:11:19;5.70;;;2.17;;
4313;SDS011;2170;48.794;9.182;2023-12-22T08:17:23;6.80;;;2.20;;
4313;SDS011;2170;48.794;9.182;2023-12-22T08:20:15;4.10;;;1.80;;
4313;SDS011;2170;48.794;9.182;2023-12-22T08:22:51;4.80;;;1.60;;
4313;SDS011;2170;48.794;9.182;2023-12-22T08:25:31;3.23;;;2.27;;
4313;SDS011;2170;48.794;9.182;2023-12-22T08:28:15;3.30;;;1.50;;
4313;SDS011;2170;48.794;9.182;2023-12-22T08:33:58;5.00;;;1.83;;
4313;SDS011;2170;48.794;9.182;2023-12-22T08:36:39;7.73;;;2.40;;
4313;SDS011;2170;48.794;9.182;2023-12-22T08:39:35;5.90;;;2.50;;
4313;SDS011;2170;48.794;9.182;2023-12-22T08:42:29;6.07;;;2.40;;
4313;SDS011;2170;48.794;9.182;2023-12-22T08:45:08;5.70;;;2.20;;
4313;SDS011;2170;48.794;9.182;2023-12-22T08:50:48;6.87;;;3.60;;
4313;SDS011;2170;48.794;9.182;2023-12-22T08:53:20;7.27;;;2.57;;
4313;SDS011;2170;48.794;9.182;2023-12-22T08:56:10;5.93;;;3.07;;
4313;SDS011;2170;48.794;9.182;2023-12-22T08:59:32;7.23;;;2.87;;
4313;SDS011;2170;48.794;9.182;2023-12-22T09:02:20;11.23;;;2.23;;
4313;SDS011;2170;48.794;9.182;2023-12-22T09:05:07;8.13;;;2.80;;
4313;SDS011;2170;48.794;9.182;2023-12-22T09:07:47;7.20;;;2.90;;
4313;SDS011;2170;48.794;9.182;2023-12-22T09:10:32;7.60;;;3.73;;
4313;SDS011;2170;48.794;9.182;2023-12-22T09:13:27;7.03;;;1.97;;
4313;SDS011;2170;48.794;9.182;2023-12-22T09:15:59;7.40;;;2.90;;
4313;SDS011;2170;48.794;9.182;2023-12-22T09:18:30;9.53;;;2.73;;
4313;SDS011;2170;48.794;9.182;2023-12-22T09:21:20;6.90;;;3.17;;
4313;SDS011;2170;48.794;9.182;2023-12-22T09:24:22;9.20;;;4.00;;
4313;SDS011;2170;48.794;9.182;2023-12-22T09:27:21;4.97;;;1.73;;
4313;SDS011;2170;48.794;9.182;2023-12-22T09:30:11;8.33;;;2.60;;
4313;SDS011;2170;48.794;9.182;2023-12-22T09:32:57;8.63;;;2.80;;
4313;SDS011;2170;48.794;9.182;2023-12-22T09:35:29;9.77;;;3.10;;
4313;SDS011;2170;48.794;9.182;2023-12-22T09:38:15;8.33;;;3.10;;
4313;SDS011;2170;48.794;9.182;2023-12-22T09:40:57;9.20;;;2.57;;
4313;SDS011;2170;48.794;9.182;2023-12-22T09:44:04;5.97;;;3.10;;
4313;SDS011;2170;48.794;9.182;2023-12-22T09:46:58;8.20;;;3.23;;
4313;SDS011;2170;48.794;9.182;2023-12-22T09:49:44;7.20;;;2.80;;
4313;SDS011;2170;48.794;9.182;2023-12-22T09:52:34;6.30;;;2.57;;
4313;SDS011;2170;48.794;9.182;2023-12-22T09:55:42;6.80;;;2.53;;
4313;SDS011;2170;48.794;9.182;2023-12-22T09:58:31;4.87;;;2.80;;
4313;SDS011;2170;48.794;9.182;2023-12-22T10:01:06;9.40;;;3.00;;
4313;SDS011;2170;48.794;9.182;2023-12-22T10:03:50;6.97;;;2.70;;
4313;SDS011;2170;48.794;9.182;2023-12-22T10:06:58;12.10;;;3.50;;
4313;SDS011;2170;48.794;9.182;2023-12-22T10:10:06;8.80;;;2.67;;
4313;SDS011;2170;48.794;9.182;2023-12-22T10:12:56;9.30;;;2.93;;
4313;SDS011;2170;48.794;9.182;2023-12-22T10:15:40;8.60;;;3.67;;
4313;SDS011;2170;48.794;9.182;2023-12-22T10:18:43;10.97;;;3.20;;
4313;SDS011;2170;48.794;9.182;2023-12-22T10:21:35;9.70;;;3.10;;
4313;SDS011;2170;48.794;9.182;2023-12-22T10:24:42;13.37;;;3.40;;
4313;SDS011;2170;48.794;9.182;2023-12-22T10:27:18;8.00;;;3.90;;
4313;SDS011;2170;48.794;9.182;2023-12-22T10:29:57;10.50;;;3.07;;
4313;SDS011;2170;48.794;9.182;2023-12-22T10:32:57;10.60;;;3.10;;
4313;SDS011;2170;48.794;9.182;2023-12-22T10:35:47;6.03;;;2.87;;
4313;SDS011;2170;48.794;9.182;2023-12-22T10:38:39;12.37;;;3.57;;
4313;SDS011;2170;48.794;9.182;2023-12-22T10:41:26;10.77;;;2.73;;
4313;SDS011;2170;48.794;9.182;2023-12-22T10:44:19;8.37;;;2.60;;
4313;SDS011;2170;48.794;9.182;2023-12-22T10:47:15;8.03;;;2.40;;
4313;SDS011;2170;48.794;9.182;2023-12-22T10:49:57;7.33;;;3.40;;
4313;SDS011;2170;48.794;9.182;2023-12-22T10:52:50;5.03;;;2.80;;
4313;SDS011;2170;48.794;9.182;2023-12-22T10:58:38;4.70;;;2.10;;
4313;SDS011;2170;48.794;9.182;2023-12-22T11:01:37;5.20;;;2.47;;
4313;SDS011;2170;48.794;9.182;2023-12-22T11:04:35;6.13;;;3.27;;
4313;SDS011;2170;48.794;9.182;2023-12-22T11:07:37;5.83;;;2.50;;
4313;SDS011;2170;48.794;9.182;2023-12-22T11:10:27;5.40;;;1.50;;
4313;SDS011;2170;48.794;9.182;2023-12-22T11:13:16;3.83;;;1.63;;
4313;SDS011;2170;48.794;9.182;2023-12-22T11:15:53;3.80;;;1.60;;
4313;SDS011;2170;48.794;9.182;2023-12-22T11:18:35;3.00;;;1.90;;
4313;SDS011;2170;48.794;9.182;2023-12-22T11:21:25;2.50;;;1.97;;
4313;SDS011;2170;48.794;9.182;2023-12-22T11:23:58;6.57;;;1.87;;
4313;SDS011;2170;48.794;9.182;2023-12-22T11:26:51;3.23;;;1.70;;
4313;SDS011;2170;48.794;9.182;2023-12-22T11:29:41;4.63;;;2.07;;
4313;SDS011;2170;48.794;9.182;2023-12-22T11:32:32;4.10;;;2.00;;
4313;SDS011;2170;48.794;9.182;2023-12-22T11:41:15;1.90;;;1.77;;
4313;SDS011;2170;48.794;9.182;2023-12-22T11:43:59;2.83;;;1.63;;
4313;SDS011;2170;48.794;9.182;2023-12-22T11:46:39;2.77;;;1.43;;
4313;SDS011;2170;48.794;9.182;2023-12-22T11:49:20;2.80;;;1.80;;
4313;SDS011;2170;48.794;9.182;2023-12-22T11:52:21;4.80;;;1.53;;
4313;SDS011;2170;48.794;9.182;2023-12-22T11:55:04;2.50;;;1.47;;
4313;SDS011;2170;48.794;9.182;2023-12-22T11:57:39;1.67;;;1.23;;
4313;SDS011;2170;48.794;9.182;2023-12-22T12:03:19;5.50;;;1.77;;
4313;SDS011;2170;48.794;9.182;2023-12-22T12:05:58;2.87;;;1.30;;
4313;SDS011;2170;48.794;9.182;2023-12-22T12:08:59;1.20;;;1.20;;
4313;SDS011;2170;48.794;9.182;2023-12-22T12:14:43;1.50;;;1.30;;
4313;SDS011;2170;48.794;9.182;2023-12-22T12:17:17;2.47;;;1.20;;
4313;SDS011;2170;48.794;9.182;2023-12-22T12:19:46;1.53;;;1.43;;
4313;SDS011;2170;48.794;9.182;2023-12-22T12:22:27;2.70;;;1.80;;
4313;SDS011;2170;48.794;9.182;2023-12-22T12:24:58;1.17;;;1.07;;
4313;SDS011;2170;48.794;9.182;2023-12-22T12:27:34;2.07;;;1.30;;
4313;SDS011;2170;48.794;9.182;2023-12-22T12:30:11;1.37;;;1.20;;
4313;SDS011;2170;48.794;9.182;2023-12-22T12:32:43;2.10;;;1.33;;
4313;SDS011;2170;48.794;9.182;2023-12-22T12:35:24;1.50;;;1.40;;
4313;SDS011;2170;48.794;9.182;2023-12-22T12:37:54;1.57;;;1.30;;
4313;SDS011;2170;48.794;9.182;2023-12-22T12:40:26;1.53;;;1.43;;
4313;SDS011;2170;48.794;9.182;2023-12-22T12:43:03;1.23;;;1.23;;
4313;SDS011;2170;48.794;9.182;2023-12-22T12:45:40;1.33;;;1.20;;
4313;SDS011;2170;48.794;9.182;2023-12-22T12:48:10;1.00;;;1.00;;
4313;SDS011;2170;48.794;9.182;2023-12-22T12:50:43;2.40;;;1.10;;
4313;SDS011;2170;48.794;9.182;2023-12-22T12:53:13;2.20;;;1.43;;
4313;SDS011;2170;48.794;9.182;2023-12-22T12:55:49;1.93;;;1.40;;
4313;SDS011;2170;48.794;9.182;2023-12-22T12:58:29;1.33;;;0.90;;
4313;SDS011;2170;48.794;9.182;2023-12-22T13:01:07;2.10;;;1.30;;
4313;SDS011;2170;48.794;9.182;2023-12-22T13:03:52;1.63;;;1.17;;
4313;SDS011;2170;48.794;9.182;2023-12-22T13:06:24;1.10;;;1.00;;
4313;SDS011;2170;48.794;9.182;2023-12-22T13:08:52;0.97;;;0.97;;
4313;SDS011;2170;48.794;9.182;2023-12-22T13:11:21;1.10;;;1.10;;
4313;SDS011;2170;48.794;9.182;2023-12-22T13:20:21;1.10;;;1.10;;
4313;SDS011;2170;48.794;9.182;2023-12-22T13:26:05;0.63;;;0.63;;
4313;SDS011;2170;48.794;9.182;2023-12-22T13:29:01;1.77;;;0.67;;
4313;SDS011;2170;48.794;9.182;2023-12-22T13:31:59;1.57;;;0.90;;
4313;SDS011;2170;48.794;9.182;2023-12-22T13:38:44;0.80;;;0.80;;
4313;SDS011;2170;48.794;9.182;2023-12-22T13:41:34;0.60;;;0.60;;
4313;SDS011;2170;48.794;9.182;2023-12-22T13:44:11;0.60;;;0.60;;
4313;SDS011;2170;48.794;9.182;2023-12-22T13:46:49;0.70;;;0.70;;
4313;SDS011;2170;48.794;9.182;2023-12-22T13:49:23;1.17;;;0.50;;
4313;SDS011;2170;48.794;9.182;2023-12-22T13:51:58;0.60;;;0.60;;
4313;SDS011;2170;48.794;9.182;2023-12-22T13:54:42;0.80;;;0.80;;
4313;SDS011;2170;48.794;9.182;2023-12-22T13:57:45;0.97;;;0.70;;
4313;SDS011;2170;48.794;9.182;2023-12-22T14:01:26;0.87;;;0.63;;
4313;SDS011;2170;48.794;9.182;2023-12-22T14:11:18;0.60;;;0.60;;
4313;SDS011;2170;48.794;9.182;2023-12-22T14:15:34;0.63;;;0.63;;
4313;SDS011;2170;48.794;9.182;2023-12-22T14:21:03;0.70;;;0.70;;
4313;SDS011;2170;48.794;9.182;2023-12-22T14:24:03;0.70;;;0.70;;
4313;SDS011;2170;48.794;9.182;2023-12-22T14:26:58;0.77;;;0.77;;
4313;SDS011;2170;48.794;9.182;2023-12-22T14:30:06;1.43;;;0.53;;
4313;SDS011;2170;48.794;9.182;2023-12-22T14:32:49;1.23;;;0.87;;
4313;SDS011;2170;48.794;9.182;2023-12-22T14:35:26;0.80;;;0.80;;
4313;SDS011;2170;48.794;9.182;2023-12-22T14:37:59;0.53;;;0.53;;
4313;SDS011;2170;48.794;9.182;2023-12-22T14:40:45;0.80;;;0.80;;
4313;SDS011;2170;48.794;9.182;2023-12-22T14:43:25;0.60;;;0.60;;
4313;SDS011;2170;48.794;9.182;2023-12-22T14:46:08;1.03;;;0.63;;
4313;SDS011;2170;48.794;9.182;2023-12-22T14:48:48;0.70;;;0.70;;
4313;SDS011;2170;48.794;9.182;2023-12-22T14:51:29;0.60;;;0.60;;
4313;SDS011;2170;48.794;9.182;2023-12-22T14:54:21;0.70;;;0.70;;
4313;SDS011;2170;48.794;9.182;2023-12-22T14:57:03;1.10;;;1.10;;
4313;SDS011;2170;48.794;9.182;2023-12-22T15:00:01;0.80;;;0.80;;
4313;SDS011;2170;48.794;9.182;2023-12-22T15:02:35;0.70;;;0.70;;
4313;SDS011;2170;48.794;9.182;2023-12-22T15:05:15;0.67;;;0.67;;
4313;SDS011;2170;48.794;9.182;2023-12-22T15:07:57;0.80;;;0.80;;
4313;SDS011;2170;48.794;9.182;2023-12-22T15:10:45;0.87;;;0.87;;
4313;SDS011;2170;48.794;9.182;2023-12-22T15:13:29;0.60;;;0.60;;
4313;SDS011;2170;48.794;9.182;2023-12-22T15:19:16;0.50;;;0.50;;
4313;SDS011;2170;48.794;9.182;2023-12-22T15:22:07;3.07;;;0.83;;
4313;SDS011;2170;48.794;9.182;2023-12-22T15:24:39;0.80;;;0.80;;
4313;SDS011;2170;48.794;9.182;2023-12-22T15:27:39;0.63;;;0.63;;
4313;SDS011;2170;48.794;9.182;2023-12-22T15:30:25;0.50;;;0.50;;
4313;SDS011;2170;48.794;9.182;2023-12-22T15:33:20;0.73;;;0.73;;
4313;SDS011;2170;48.794;9.182;2023-12-22T15:35:57;0.90;;;0.90;;
4313;SDS011;2170;48.794;9.182;2023-12-22T15:38:36;0.70;;;0.70;;
4313;SDS011;2170;48.794;9.182;2023-12-22T15:41:12;0.83;;;0.80;;
4313;SDS011;2170;48.794;9.182;2023-12-22T15:44:13;0.80;;;0.80;;
4313;SDS011;2170;48.794;9.182;2023-12-22T15:47:28;1.03;;;0.80;;
4313;SDS011;2170;48.794;9.182;2023-12-22T15:56:34;0.60;;;0.60;;
4313;SDS011;2170;48.794;9.182;2023-12-22T15:59:25;0.60;;;0.60;;
4313;SDS011;2170;48.794;9.182;2023-12-22T16:02:15;0.70;;;0.70;;
4313;SDS011;2170;48.794;9.182;2023-12-22T16:04:56;1.23;;;0.70;;
4313;SDS011;2170;48.794;9.182;2023-12-22T16:07:56;0.80;;;0.80;;
4313;SDS011;2170;48.794;9.182;2023-12-22T16:10:50;0.60;;;0.60;;
4313;SDS011;2170;48.794;9.182;2023-12-22T16:13:47;1.00;;;1.00;;
4313;SDS011;2170;48.794;9.182;2023-12-22T16:19:21;0.73;;;0.63;;
4313;SDS011;2170;48.794;9.182;2023-12-22T16:21:57;0.73;;;0.73;;
4313;SDS011;2170;48.794;9.182;2023-12-22T16:24:40;0.80;;;0.80;;
4313;SDS011;2170;48.794;9.182;2023-12-22T16:27:34;0.63;;;0.63;;
4313;SDS011;2170;48.794;9.182;2023-12-22T16:30:40;0.50;;;0.50;;
4313;SDS011;2170;48.794;9.182;2023-12-22T16:33:50;0.80;;;0.80;;
4313;SDS011;2170;48.794;9.182;2023-12-22T16:36:35;1.73;;;0.80;;
4313;SDS011;2170;48.794;9.182;2023-12-22T16:39:08;1.00;;;1.00;;
4313;SDS011;2170;48.794;9.182;2023-12-22T16:41:55;0.60;;;0.60;;
4313;SDS011;2170;48.794;9.182;2023-12-22T16:44:58;1.00;;;1.00;;
4313;SDS011;2170;48.794;9.182;2023-12-22T16:47:42;1.00;;;0.80;;
4313;SDS011;2170;48.794;9.182;2023-12-22T16:50:33;1.10;;;1.10;;
4313;SDS011;2170;48.794;9.182;2023-12-22T16:53:08;1.03;;;0.77;;
4313;SDS011;2170;48.794;9.182;2023-12-22T16:55:53;0.70;;;0.70;;
4313;SDS011;2170;48.794;9.182;2023-12-22T16:58:29;0.60;;;0.60;;
4313;SDS011;2170;48.794;9.182;2023-12-22T17:00:59;0.90;;;0.90;;
4313;SDS011;2170;48.794;9.182;2023-12-22T17:03:39;0.63;;;0.63;;
4313;SDS011;2170;48.794;9.182;2023-12-22T17:06:31;0.60;;;0.60;;
4313;SDS011;2170;48.794;9.182;2023-12-22T17:09:12;1.97;;;0.90;;
4313;SDS011;2170;48.794;9.182;2023-12-22T17:12:03;0.87;;;0.87;;
4313;SDS011;2170;48.794;9.182;2023-12-22T17:14:50;0.83;;;0.70;;
4313;SDS011;2170;48.794;9.182;2023-12-22T17:17:46;0.77;;;0.50;;
4313;SDS011;2170;48.794;9.182;2023-12-22T17:20:32;1.10;;;0.80;;
4313;SDS011;2170;48.794;9.182;2023-12-22T17:23:11;1.53;;;0.97;;
4313;SDS011;2170;48.794;9.182;2023-12-22T17:25:44;1.00;;;1.00;;
4313;SDS011;2170;48.794;9.182;2023-12-22T17:28:34;0.93;;;0.80;;
4313;SDS011;2170;48.794;9.182;2023-12-22T17:31:11;0.70;;;0.70;;
4313;SDS011;2170;48.794;9.182;2023-12-22T17:34:21;0.60;;;0.60;;
4313;SDS011;2170;48.794;9.182;2023-12-22T17:37:27;1.40;;;1.00;;
4313;SDS011;2170;48.794;9.182;2023-12-22T17:40:12;0.90;;;0.67;;
4313;SDS011;2170;48.794;9.182;2023-12-22T17:42:58;1.13;;;1.00;;
4313;SDS011;2170;48.794;9.182;2023-12-22T17:52:09;0.90;;;0.90;;
4313;SDS011;2170;48.794;9.182;2023-12-22T17:56:06;1.20;;;0.80;;
4313;SDS011;2170;48.794;9.182;2023-12-22T17:58:48;0.77;;;0.77;;
4313;SDS011;2170;48.794;9.182;2023-12-22T18:01:42;0.80;;;0.60;;
4313;SDS011;2170;48.794;9.182;2023-12-22T18:04:52;0.77;;;0.77;;
4313;SDS011;2170;48.794;9.182;2023-12-22T18:07:41;0.90;;;0.90;;
4313;SDS011;2170;48.794;9.182;2023-12-22T18:10:32;1.10;;;0.83;;
4313;SDS011;2170;48.794;9.182;2023-12-22T18:13:23;0.93;;;0.93;;
4313;SDS011;2170;48.794;9.182;2023-12-22T18:16:16;1.30;;;0.90;;
4313;SDS011;2170;48.794;9.182;2023-12-22T18:19:34;0.87;;;0.87;;
4313;SDS011;2170;48.794;9.182;2023-12-22T18:32:48;0.83;;;0.70;;
4313;SDS011;2170;48.794;9.182;2023-12-22T18:35:48;0.70;;;0.70;;
4313;SDS011;2170;48.794;9.182;2023-12-22T18:40:05;3.23;;;0.70;;
4313;SDS011;2170;48.794;9.182;2023-12-22T18:48:42;0.90;;;0.90;;
4313;SDS011;2170;48.794;9.182;2023-12-22T18:54:42;0.70;;;0.70;;
4313;SDS011;2170;48.794;9.182;2023-12-22T18:57:46;0.70;;;0.70;;
4313;SDS011;2170;48.794;9.182;2023-12-22T19:00:47;1.77;;;0.73;;
4313;SDS011;2170;48.794;9.182;2023-12-22T19:03:21;0.80;;;0.80;;
4313;SDS011;2170;48.794;9.182;2023-12-22T19:05:58;0.70;;;0.70;;
4313;SDS011;2170;48.794;9.182;2023-12-22T19:08:36;0.80;;;0.80;;
4313;SDS011;2170;48.794;9.182;2023-12-22T19:11:36;0.97;;;0.90;;
4313;SDS011;2170;48.794;9.182;2023-12-22T19:14:50;0.70;;;0.70;;
4313;SDS011;2170;48.794;9.182;2023-12-22T19:17:31;0.80;;;0.80;;
4313;SDS011;2170;48.794;9.182;2023-12-22T19:20:17;1.00;;;1.00;;
4313;SDS011;2170;48.794;9.182;2023-12-22T19:23:23;1.13;;;0.90;;
4313;SDS011;2170;48.794;9.182;2023-12-22T19:26:26;0.93;;;0.90;;
4313;SDS011;2170;48.794;9.182;2023-12-22T19:29:15;0.70;;;0.70;;
4313;SDS011;2170;48.794;9.182;2023-12-22T19:38:50;1.27;;;0.90;;